createdAt,value
2023-05-14T00:02:08.937Z,19.70
2023-05-14T00:04:37.578Z,19.49
2023-05-14T00:07:06.466Z,20.38
2023-05-14T00:09:35.080Z,19.86
2023-05-14T00:12:03.717Z,19.09
2023-05-14T00:14:32.333Z,19.54
2023-05-14T00:17:01.168Z,20.01
2023-05-14T00:19:29.692Z,19.61
2023-05-14T00:21:59.332Z,19.50
2023-05-14T00:24:27.664Z,19.66
2023-05-14T00:26:56.262Z,19.96
2023-05-14T00:29:24.856Z,19.65
2023-05-14T00:31:53.534Z,19.54
2023-05-14T00:34:22.383Z,19.51
2023-05-14T00:36:53.211Z,19.86
2023-05-14T00:39:21.821Z,19.08
2023-05-14T00:41:50.058Z,19.43
2023-05-14T00:44:18.647Z,20.52
2023-05-14T00:46:47.185Z,20.08
2023-05-14T00:49:16.257Z,20.24
2023-05-14T00:51:47.885Z,19.37
2023-05-14T00:54:17.715Z,19.40
2023-05-14T00:56:49.566Z,18.54
2023-05-14T00:59:18.522Z,18.03
2023-05-14T01:01:47.112Z,18.05
2023-05-14T01:04:15.668Z,18.57
2023-05-14T01:07:02.544Z,18.83
2023-05-14T01:09:59.001Z,19.03
2023-05-14T01:12:48.640Z,20.18
2023-05-14T01:15:28.268Z,19.92
2023-05-14T01:18:06.172Z,19.50
2023-05-14T01:20:34.473Z,19.19
2023-05-14T01:23:05.856Z,19.75
2023-05-14T01:25:35.407Z,18.81
2023-05-14T01:28:21.450Z,19.01
2023-05-14T01:31:05.264Z,18.67
2023-05-14T01:33:36.808Z,20.01
2023-05-14T01:36:07.394Z,21.00
2023-05-14T01:38:37.413Z,20.32
2023-05-14T01:41:06.408Z,19.47
2023-05-14T01:43:37.177Z,19.96
2023-05-14T01:46:06.259Z,20.21
2023-05-14T01:48:34.950Z,20.79
2023-05-14T01:51:04.006Z,20.80
2023-05-14T01:53:32.578Z,20.53
2023-05-14T01:56:01.383Z,20.76
2023-05-14T01:58:30.015Z,21.50
2023-05-14T02:00:58.868Z,20.68
2023-05-14T02:03:27.734Z,20.91
2023-05-14T02:05:56.468Z,20.76
2023-05-14T02:08:24.775Z,21.59
2023-05-14T02:10:53.404Z,21.29
2023-05-14T02:13:21.760Z,21.92
2023-05-14T02:15:51.432Z,22.34
2023-05-14T02:18:20.320Z,22.29
2023-05-14T02:20:48.691Z,22.55
2023-05-14T02:23:17.313Z,22.63
2023-05-14T02:25:46.286Z,23.02
2023-05-14T02:28:14.880Z,22.98
2023-05-14T02:30:44.418Z,23.26
2023-05-14T02:33:12.959Z,23.15
2023-05-14T02:35:41.600Z,23.73
2023-05-14T02:38:10.810Z,24.54
2023-05-14T02:40:39.688Z,24.48
2023-05-14T02:43:08.418Z,24.50
2023-05-14T02:45:37.516Z,24.44
2023-05-14T02:48:06.199Z,24.90
2023-05-14T02:50:34.889Z,24.74
2023-05-14T02:53:03.588Z,24.48
2023-05-14T02:55:32.475Z,24.55
2023-05-14T02:58:00.887Z,25.08
2023-05-14T03:00:29.091Z,24.99
2023-05-14T03:02:58.372Z,25.24
2023-05-14T03:05:27.593Z,26.42
2023-05-14T03:07:56.270Z,26.03
2023-05-14T03:10:25.212Z,26.49
2023-05-14T03:12:55.080Z,26.60
2023-05-14T03:15:23.723Z,27.24
2023-05-14T03:17:52.376Z,27.59
2023-05-14T03:20:21.312Z,28.49
2023-05-14T03:22:50.158Z,29.07
2023-05-14T03:25:18.928Z,29.51
2023-05-14T03:27:47.546Z,29.68
2023-05-14T03:30:17.068Z,29.88
2023-05-14T03:32:46.251Z,30.09
2023-05-14T03:35:15.830Z,30.61
2023-05-14T03:37:44.366Z,30.86
2023-05-14T03:40:12.855Z,30.97
2023-05-14T03:42:41.144Z,30.81
2023-05-14T03:45:10.283Z,31.13
2023-05-14T03:47:39.003Z,31.90
2023-05-14T03:50:08.811Z,31.18
2023-05-14T03:52:37.573Z,31.33
2023-05-14T03:55:06.240Z,31.53
2023-05-14T03:57:34.790Z,31.55
2023-05-14T04:00:03.758Z,32.05
2023-05-14T04:02:32.825Z,31.85
2023-05-14T04:05:01.730Z,31.84
2023-05-14T04:07:29.633Z,31.98
2023-05-14T04:09:58.523Z,32.61
2023-05-14T04:12:28.124Z,32.76
2023-05-14T04:14:58.697Z,33.33
2023-05-14T04:17:27.577Z,33.03
2023-05-14T04:19:56.193Z,33.26
2023-05-14T04:22:24.935Z,33.44
2023-05-14T04:24:54.279Z,33.49
2023-05-14T04:27:23.170Z,33.65
2023-05-14T04:29:52.265Z,33.63
2023-05-14T04:32:21.097Z,33.67
2023-05-14T04:34:49.748Z,33.86
2023-05-14T04:37:18.070Z,34.18
2023-05-14T04:39:46.661Z,34.20
2023-05-14T04:42:15.231Z,33.97
2023-05-14T04:44:43.801Z,34.26
2023-05-14T04:47:12.629Z,34.61
2023-05-14T04:49:41.628Z,34.98
2023-05-14T04:52:10.485Z,35.12
2023-05-14T04:54:39.107Z,35.49
2023-05-14T04:57:07.892Z,35.13
2023-05-14T04:59:37.002Z,35.42
2023-05-14T05:02:06.051Z,36.02
2023-05-14T05:04:34.680Z,35.90
2023-05-14T05:07:03.440Z,36.09
2023-05-14T05:09:32.489Z,35.87
2023-05-14T05:12:02.899Z,36.49
2023-05-14T05:14:31.322Z,36.52
2023-05-14T05:16:59.869Z,36.34
2023-05-14T05:19:42.482Z,35.93
2023-05-14T05:22:12.811Z,35.85
2023-05-14T05:24:41.011Z,36.04
2023-05-14T05:27:09.188Z,35.92
2023-05-14T05:29:38.055Z,36.12
2023-05-14T05:32:07.257Z,36.13
2023-05-14T05:34:35.983Z,36.39
2023-05-14T05:37:04.358Z,36.39
2023-05-14T05:39:36.055Z,36.69
2023-05-14T05:42:05.064Z,36.79
2023-05-14T05:44:33.791Z,37.19
2023-05-14T05:47:02.634Z,37.48
2023-05-14T05:49:31.348Z,37.32
2023-05-14T05:52:00.920Z,37.35
2023-05-14T05:54:29.436Z,37.71
2023-05-14T05:56:58.173Z,37.79
2023-05-14T05:59:26.898Z,37.86
2023-05-14T06:01:58.523Z,37.99
2023-05-14T06:04:27.265Z,38.57
2023-05-14T06:06:55.892Z,38.24
2023-05-14T06:09:24.247Z,38.63
2023-05-14T06:11:52.844Z,38.89
2023-05-14T06:14:21.442Z,38.97
2023-05-14T06:16:50.227Z,38.97
2023-05-14T06:19:18.846Z,39.54
2023-05-14T06:21:47.112Z,39.55
2023-05-14T06:24:15.748Z,39.47
2023-05-14T06:26:44.356Z,39.41
2023-05-14T06:29:12.870Z,39.77
2023-05-14T06:31:41.137Z,40.06
2023-05-14T06:34:10.522Z,39.78
2023-05-14T06:36:39.107Z,39.91
2023-05-14T06:39:07.991Z,40.03
2023-05-14T06:41:35.951Z,40.01
2023-05-14T06:44:05.054Z,39.75
2023-05-14T06:46:33.160Z,40.19
2023-05-14T06:49:01.818Z,40.61
2023-05-14T06:51:30.226Z,40.46
2023-05-14T06:53:58.782Z,40.58
2023-05-14T06:56:27.391Z,41.02
2023-05-14T06:58:56.016Z,41.13
2023-05-14T07:01:24.934Z,41.12
2023-05-14T07:03:53.559Z,40.68
2023-05-14T07:06:22.827Z,41.10
2023-05-14T07:08:51.510Z,41.02
2023-05-14T07:11:20.146Z,41.32
2023-05-14T07:13:48.704Z,41.42
2023-05-14T07:16:17.298Z,41.59
2023-05-14T07:18:46.577Z,41.70
2023-05-14T07:21:15.154Z,41.83
2023-05-14T07:23:43.731Z,41.98
2023-05-14T07:26:12.545Z,42.12
2023-05-14T07:28:41.131Z,41.82
2023-05-14T07:31:10.324Z,42.32
2023-05-14T07:33:40.183Z,42.41
2023-05-14T07:36:10.077Z,42.89
2023-05-14T07:38:38.750Z,42.69
2023-05-14T07:41:07.442Z,42.74
2023-05-14T07:43:36.059Z,42.93
2023-05-14T07:46:04.358Z,42.99
2023-05-14T07:48:32.593Z,43.30
2023-05-14T07:51:01.785Z,43.47
2023-05-14T07:53:30.803Z,43.23
2023-05-14T07:56:01.386Z,43.45
2023-05-14T07:58:30.299Z,43.72
2023-05-14T08:00:58.932Z,43.83
2023-05-14T08:03:28.429Z,43.70
2023-05-14T08:05:58.720Z,43.87
2023-05-14T08:08:28.776Z,44.40
2023-05-14T08:10:57.427Z,43.96
2023-05-14T08:13:25.381Z,44.28
2023-05-14T08:15:54.115Z,43.85
2023-05-14T08:18:22.845Z,44.35
2023-05-14T08:20:51.447Z,44.21
2023-05-14T08:23:20.081Z,44.55
2023-05-14T08:25:48.721Z,44.67
2023-05-14T08:28:17.392Z,45.11
2023-05-14T08:30:45.751Z,45.13
2023-05-14T08:33:15.289Z,45.24
2023-05-14T08:35:43.928Z,45.49
2023-05-14T08:38:12.846Z,45.55
2023-05-14T08:40:41.629Z,45.92
2023-05-14T08:43:13.230Z,45.87
2023-05-14T08:45:42.760Z,46.39
2023-05-14T08:48:16.519Z,46.07
2023-05-14T08:50:45.896Z,46.33
2023-05-14T08:53:14.626Z,46.63
2023-05-14T08:55:44.509Z,46.41
2023-05-14T08:58:13.257Z,46.72
2023-05-14T09:00:43.654Z,46.86
2023-05-14T09:03:13.909Z,47.20
2023-05-14T09:05:43.042Z,46.90
2023-05-14T09:08:11.668Z,47.21
2023-05-14T09:10:41.702Z,47.69
2023-05-14T09:13:11.254Z,47.70
2023-05-14T09:15:42.770Z,48.31
2023-05-14T09:18:12.933Z,48.23
2023-05-14T09:20:41.640Z,48.57
2023-05-14T09:23:10.111Z,48.84
2023-05-14T09:25:38.677Z,49.10
2023-05-14T09:28:13.386Z,48.86
2023-05-14T09:30:42.052Z,48.97
2023-05-14T09:33:11.385Z,48.96
2023-05-14T09:35:42.712Z,49.46
2023-05-14T09:38:10.704Z,49.38
2023-05-14T09:40:39.711Z,49.94
2023-05-14T09:43:07.812Z,49.49
2023-05-14T09:45:36.567Z,49.77
2023-05-14T09:48:05.121Z,49.74
2023-05-14T09:50:33.859Z,49.96
2023-05-14T09:53:02.734Z,50.25
2023-05-14T09:55:32.702Z,50.20
2023-05-14T09:58:01.245Z,50.77
2023-05-14T10:00:30.660Z,50.45
2023-05-14T10:03:00.779Z,50.77
2023-05-14T10:05:30.428Z,51.15
2023-05-14T10:08:03.472Z,51.34
2023-05-14T10:10:32.290Z,51.19
2023-05-14T10:13:05.867Z,51.21
2023-05-14T10:16:08.382Z,51.73
2023-05-14T10:18:47.236Z,51.72
2023-05-14T10:21:17.873Z,51.52
2023-05-14T10:23:47.469Z,51.80
2023-05-14T10:26:16.837Z,52.04
2023-05-14T10:28:46.272Z,51.59
2023-05-14T10:31:14.925Z,51.94
2023-05-14T10:33:51.765Z,52.27
2023-05-14T10:36:20.573Z,52.40
2023-05-14T10:38:56.793Z,52.73
2023-05-14T10:41:26.561Z,53.16
2023-05-14T10:43:55.524Z,53.47
2023-05-14T10:46:24.184Z,53.21
2023-05-14T10:48:52.812Z,53.51
2023-05-14T10:51:23.965Z,53.51
2023-05-14T10:53:54.144Z,54.14
2023-05-14T10:56:23.708Z,54.20
2023-05-14T10:58:52.584Z,54.41
2023-05-14T11:01:26.907Z,54.69
2023-05-14T11:03:57.247Z,54.82
2023-05-14T11:06:28.981Z,54.60
2023-05-14T11:08:57.705Z,54.85
2023-05-14T11:11:27.652Z,55.06
2023-05-14T11:13:56.902Z,55.63
2023-05-14T11:16:30.550Z,55.40
2023-05-14T11:19:06.893Z,55.74
2023-05-14T11:21:35.609Z,56.26
2023-05-14T11:24:06.374Z,55.79
2023-05-14T11:26:35.840Z,56.39
2023-05-14T11:29:04.515Z,56.22
2023-05-14T11:31:33.235Z,56.80
2023-05-14T11:34:02.666Z,56.59
2023-05-14T11:36:31.268Z,56.77
2023-05-14T11:38:59.841Z,56.72
2023-05-14T11:41:29.541Z,56.91
2023-05-14T11:43:57.895Z,57.42
2023-05-14T11:46:27.512Z,57.47
2023-05-14T11:48:57.139Z,57.35
2023-05-14T11:51:25.523Z,57.60
2023-05-14T11:53:55.908Z,57.75
2023-05-14T11:56:24.492Z,57.87
2023-05-14T11:59:00.160Z,58.16
2023-05-14T12:01:30.250Z,57.86
2023-05-14T12:03:58.977Z,57.88
2023-05-14T12:06:35.461Z,58.20
2023-05-14T12:09:07.215Z,58.04
2023-05-14T12:11:38.280Z,57.85
2023-05-14T12:14:16.499Z,58.69
2023-05-14T12:16:48.574Z,58.22
2023-05-14T12:19:19.588Z,58.31
2023-05-14T12:21:52.505Z,58.17
2023-05-14T12:24:21.481Z,58.27
2023-05-14T12:26:51.391Z,58.57
2023-05-14T12:29:19.924Z,58.50
2023-05-14T12:31:50.083Z,58.37
2023-05-14T12:34:19.109Z,58.50
2023-05-14T12:36:47.713Z,58.08
2023-05-14T12:39:16.387Z,58.15
2023-05-14T12:41:45.356Z,57.77
2023-05-14T12:44:13.708Z,57.87
2023-05-14T12:46:42.408Z,57.56
2023-05-14T12:49:10.959Z,57.36
2023-05-14T12:51:39.512Z,57.37
2023-05-14T12:54:08.059Z,57.41
2023-05-14T12:56:39.200Z,57.09
2023-05-14T12:59:07.977Z,56.61
2023-05-14T13:01:36.886Z,56.41
2023-05-14T13:04:06.912Z,56.55
2023-05-14T13:06:35.538Z,56.85
2023-05-14T13:09:04.734Z,56.45
2023-05-14T13:11:33.560Z,56.14
2023-05-14T13:14:03.286Z,56.09
2023-05-14T13:16:33.044Z,55.71
2023-05-14T13:19:01.962Z,55.74
2023-05-14T13:21:31.559Z,55.30
2023-05-14T13:24:00.189Z,55.53
2023-05-14T13:26:29.695Z,54.70
2023-05-14T13:28:57.856Z,55.60
2023-05-14T13:31:25.982Z,54.81
2023-05-14T13:33:54.815Z,54.67
2023-05-14T13:36:23.278Z,54.56
2023-05-14T13:38:51.892Z,53.80
2023-05-14T13:41:20.503Z,54.38
2023-05-14T13:43:49.188Z,53.80
2023-05-14T13:46:17.791Z,53.90
2023-05-14T13:48:46.400Z,53.44
2023-05-14T13:51:15.116Z,52.87
2023-05-14T13:53:44.591Z,52.04
2023-05-14T13:56:13.103Z,51.34
2023-05-14T13:58:41.867Z,51.40
2023-05-14T14:01:10.559Z,50.25
2023-05-14T14:03:39.342Z,49.71
2023-05-14T14:06:08.257Z,49.60
2023-05-14T14:08:37.278Z,49.09
2023-05-14T14:11:06.166Z,48.58
2023-05-14T14:13:34.409Z,47.60
2023-05-14T14:16:04.535Z,47.31
2023-05-14T14:18:33.224Z,46.37
2023-05-14T14:21:01.822Z,45.14
2023-05-14T14:23:30.240Z,44.77
2023-05-14T14:25:59.443Z,44.53
2023-05-14T14:28:28.137Z,44.32
2023-05-14T14:30:56.796Z,43.76
2023-05-14T14:33:25.340Z,43.00
2023-05-14T14:35:53.952Z,42.87
2023-05-14T14:38:22.630Z,42.15
2023-05-14T14:40:50.830Z,42.09
2023-05-14T14:43:20.351Z,42.11
2023-05-14T14:45:49.844Z,41.88
2023-05-14T14:48:27.575Z,41.02
2023-05-14T14:50:57.214Z,41.20
2023-05-14T14:53:26.369Z,40.77
2023-05-14T14:55:55.156Z,40.91
2023-05-14T14:58:24.329Z,40.28
2023-05-14T15:00:55.238Z,40.21
2023-05-14T15:03:24.482Z,40.46
2023-05-14T15:05:54.647Z,39.60
2023-05-14T15:08:27.731Z,39.30
2023-05-14T15:10:59.407Z,38.48
2023-05-14T15:13:27.777Z,38.21
2023-05-14T15:15:56.380Z,38.09
2023-05-14T15:18:25.083Z,38.45
2023-05-14T15:20:54.237Z,38.37
2023-05-14T15:23:23.687Z,37.25
2023-05-14T15:25:52.625Z,36.56
2023-05-14T15:28:21.315Z,35.96
2023-05-14T15:30:50.260Z,36.01
2023-05-14T15:33:20.613Z,35.33
2023-05-14T15:35:49.211Z,35.28
2023-05-14T15:38:17.791Z,34.75
2023-05-14T15:40:46.552Z,33.91
2023-05-14T15:43:15.192Z,33.44
2023-05-14T15:45:47.493Z,33.22
2023-05-14T15:48:16.240Z,33.42
2023-05-14T15:50:45.466Z,32.68
2023-05-14T15:53:14.727Z,32.18
2023-05-14T15:55:42.970Z,31.72
2023-05-14T15:58:11.596Z,31.19
2023-05-14T16:00:40.911Z,30.48
2023-05-14T16:03:09.528Z,29.75
2023-05-14T16:05:38.393Z,29.08
2023-05-14T16:08:07.649Z,29.24
2023-05-14T16:10:36.318Z,28.22
2023-05-14T16:13:05.027Z,28.74
2023-05-14T16:15:33.694Z,27.53
2023-05-14T16:18:02.615Z,28.13
2023-05-14T16:20:31.209Z,28.20
2023-05-14T16:22:59.765Z,27.82
2023-05-14T16:25:28.348Z,27.46
2023-05-14T16:27:56.984Z,26.64
2023-05-14T16:30:25.461Z,26.77
2023-05-14T16:32:57.152Z,26.80
2023-05-14T16:35:25.833Z,26.42
2023-05-14T16:37:54.527Z,26.85
2023-05-14T16:40:27.228Z,25.78
2023-05-14T16:42:55.900Z,25.70
2023-05-14T16:45:24.276Z,25.70
2023-05-14T16:47:53.084Z,25.81
2023-05-14T16:50:22.238Z,25.00
2023-05-14T16:52:50.812Z,24.65
2023-05-14T16:55:21.095Z,24.54
2023-05-14T16:57:49.872Z,25.34
2023-05-14T17:00:19.255Z,24.60
2023-05-14T17:02:51.153Z,24.88
2023-05-14T17:05:19.792Z,24.04
2023-05-14T17:07:49.326Z,24.22
2023-05-14T17:10:18.406Z,23.97
2023-05-14T17:12:48.120Z,24.02
2023-05-14T17:15:16.708Z,24.12
2023-05-14T17:17:45.016Z,24.05
2023-05-14T17:20:15.930Z,23.52
2023-05-14T17:22:45.680Z,23.60
2023-05-14T17:25:14.440Z,23.33
2023-05-14T17:27:42.413Z,22.96
2023-05-14T17:30:11.482Z,23.33
2023-05-14T17:32:40.137Z,22.78
2023-05-14T17:35:11.183Z,23.41
2023-05-14T17:37:39.794Z,23.00
2023-05-14T17:40:08.970Z,23.42
2023-05-14T17:42:37.605Z,22.58
2023-05-14T17:45:06.707Z,23.38
2023-05-14T17:47:35.389Z,23.81
2023-05-14T17:50:04.048Z,22.49
2023-05-14T17:52:32.413Z,22.96
2023-05-14T17:55:00.365Z,22.48
2023-05-14T17:57:29.088Z,22.91
2023-05-14T17:59:57.842Z,21.66
2023-05-14T18:02:26.642Z,22.49
2023-05-14T18:04:55.566Z,21.46
2023-05-14T18:07:24.518Z,20.55
2023-05-14T18:09:53.143Z,21.68
2023-05-14T18:12:21.395Z,21.43
2023-05-14T18:14:50.105Z,21.13
2023-05-14T18:17:18.974Z,20.90
2023-05-14T18:19:47.573Z,22.00
2023-05-14T18:22:16.804Z,22.31
2023-05-14T18:24:45.459Z,21.10
2023-05-14T18:27:14.093Z,21.12
2023-05-14T18:29:43.449Z,20.68
2023-05-14T18:32:12.123Z,20.72
2023-05-14T18:34:40.716Z,20.98
2023-05-14T18:37:10.075Z,20.52
2023-05-14T18:39:38.841Z,20.42
2023-05-14T18:42:07.708Z,20.67
2023-05-14T18:44:36.345Z,19.91
2023-05-14T18:47:05.140Z,19.75
2023-05-14T18:49:33.293Z,20.40
2023-05-14T18:52:01.831Z,21.25
2023-05-14T18:54:30.339Z,20.44
2023-05-14T18:56:59.122Z,20.69
2023-05-14T18:59:28.010Z,20.18
2023-05-14T19:01:56.744Z,21.08
2023-05-14T19:04:25.443Z,20.00
2023-05-14T19:06:54.254Z,19.91
2023-05-14T19:09:24.047Z,20.12
2023-05-14T19:11:53.664Z,20.82
2023-05-14T19:14:22.388Z,20.45
2023-05-14T19:16:50.863Z,20.40
2023-05-14T19:19:19.269Z,19.64
2023-05-14T19:21:48.876Z,20.20
2023-05-14T19:24:17.082Z,20.76
2023-05-14T19:26:45.950Z,20.65
2023-05-14T19:29:14.715Z,20.27
2023-05-14T19:31:43.430Z,20.07
2023-05-14T19:34:12.116Z,19.85
2023-05-14T19:36:40.861Z,19.53
2023-05-14T19:39:08.793Z,20.04
2023-05-14T19:41:37.372Z,20.38
2023-05-14T19:44:06.024Z,20.67
2023-05-14T19:46:34.276Z,21.29
2023-05-14T19:49:02.929Z,20.35
2023-05-14T19:51:30.902Z,19.62
2023-05-14T19:53:59.539Z,17.75
2023-05-14T19:56:28.878Z,19.12
2023-05-14T19:58:57.470Z,20.27
2023-05-14T20:01:25.846Z,20.55
2023-05-14T20:03:54.031Z,19.27
2023-05-14T20:06:22.429Z,18.67
2023-05-14T20:08:52.560Z,17.44
2023-05-14T20:11:21.225Z,17.83
2023-05-14T20:13:50.791Z,19.46
2023-05-14T20:16:19.963Z,18.29
2023-05-14T20:18:48.647Z,18.78
2023-05-14T20:21:16.911Z,17.98
2023-05-14T20:23:45.205Z,19.23
2023-05-14T20:26:13.853Z,19.03
2023-05-14T20:28:44.698Z,17.90
2023-05-14T20:31:12.953Z,17.00
2023-05-14T20:33:41.584Z,18.03
2023-05-14T20:36:10.140Z,17.85
2023-05-14T20:38:38.793Z,17.41
2023-05-14T20:41:07.404Z,18.44
2023-05-14T20:43:35.991Z,18.10
2023-05-14T20:46:06.840Z,17.24
2023-05-14T20:48:34.883Z,18.54
2023-05-14T20:51:06.190Z,16.55
2023-05-14T20:53:35.399Z,16.90
2023-05-14T20:56:04.010Z,16.62
2023-05-14T20:58:32.538Z,15.87
2023-05-14T21:01:01.186Z,17.19
2023-05-14T21:03:29.964Z,17.17
2023-05-14T21:05:59.209Z,16.10
2023-05-14T21:08:28.948Z,17.39
2023-05-14T21:10:57.280Z,17.02
2023-05-14T21:13:25.323Z,16.93
2023-05-14T21:15:54.188Z,15.24
2023-05-14T21:18:22.885Z,16.24
2023-05-14T21:20:51.082Z,16.74
2023-05-14T21:23:20.944Z,16.38
2023-05-14T21:25:49.104Z,15.82
2023-05-14T21:28:17.727Z,16.82
2023-05-14T21:30:46.270Z,16.73
2023-05-14T21:33:14.845Z,14.63
2023-05-14T21:35:44.260Z,14.58
2023-05-14T21:38:13.341Z,15.34
2023-05-14T21:40:41.543Z,14.54
2023-05-14T21:43:10.172Z,14.97
2023-05-14T21:45:38.851Z,14.77
2023-05-14T21:48:08.297Z,14.07
2023-05-14T21:50:36.960Z,14.59
2023-05-14T21:53:05.629Z,14.08
2023-05-14T21:55:33.661Z,14.79
2023-05-14T21:58:02.297Z,15.44
2023-05-14T22:00:31.219Z,14.11
2023-05-14T22:03:00.455Z,14.81
2023-05-14T22:05:29.280Z,16.25
2023-05-14T22:07:58.372Z,15.08
2023-05-14T22:10:27.007Z,15.70
2023-05-14T22:12:55.693Z,15.46
2023-05-14T22:15:24.262Z,14.05
2023-05-14T22:17:53.058Z,15.96
2023-05-14T22:20:21.662Z,14.59
2023-05-14T22:22:51.250Z,14.33
2023-05-14T22:25:19.853Z,14.66
2023-05-14T22:27:48.433Z,14.94
2023-05-14T22:30:17.092Z,14.59
2023-05-14T22:32:45.754Z,16.58
2023-05-14T22:35:15.337Z,15.56
2023-05-14T22:37:43.948Z,15.51
2023-05-14T22:40:14.810Z,15.18
2023-05-14T22:42:43.497Z,15.59
2023-05-14T22:45:12.448Z,14.82
2023-05-14T22:47:41.030Z,15.51
2023-05-14T22:50:13.052Z,15.68
2023-05-14T22:52:42.552Z,15.84
2023-05-14T22:55:11.252Z,17.04
2023-05-14T22:57:40.423Z,16.11
2023-05-14T23:00:09.717Z,15.82
2023-05-14T23:02:38.479Z,15.83
2023-05-14T23:05:08.184Z,15.17
2023-05-14T23:07:37.192Z,15.17
2023-05-14T23:10:08.949Z,14.87
2023-05-14T23:12:37.713Z,14.57
2023-05-14T23:15:07.776Z,15.96
2023-05-14T23:17:36.401Z,15.11
2023-05-14T23:20:06.993Z,15.39
2023-05-14T23:22:35.618Z,16.13
2023-05-14T23:25:03.935Z,15.55
2023-05-14T23:27:32.757Z,17.66
2023-05-14T23:30:01.331Z,15.74
2023-05-14T23:32:29.990Z,17.50
2023-05-14T23:34:58.666Z,19.54
2023-05-14T23:37:27.260Z,16.04
2023-05-14T23:39:55.906Z,16.00
2023-05-14T23:42:24.639Z,16.60
2023-05-14T23:44:53.224Z,15.27
2023-05-14T23:47:22.188Z,15.05
2023-05-14T23:49:50.792Z,16.12
2023-05-14T23:52:19.323Z,16.36
2023-05-14T23:54:47.942Z,16.02
2023-05-14T23:57:16.701Z,17.02
2023-05-14T23:59:45.345Z,16.02
